createdAt,value
2023-03-21T00:00:39.829Z,14.54
2023-03-21T00:03:44.881Z,14.42
2023-03-21T00:06:49.217Z,14.55
2023-03-21T00:10:01.877Z,14.55
2023-03-21T00:13:09.269Z,14.55
2023-03-21T00:16:24.289Z,14.40
2023-03-21T00:19:38.794Z,14.47
2023-03-21T00:22:43.417Z,14.12
2023-03-21T00:25:47.416Z,14.23
2023-03-21T00:28:51.812Z,14.27
2023-03-21T00:31:59.077Z,14.20
2023-03-21T00:35:31.582Z,14.40
2023-03-21T00:38:27.104Z,14.35
2023-03-21T00:41:42.008Z,14.27
2023-03-21T00:44:46.977Z,14.39
2023-03-21T00:47:52.547Z,14.30
2023-03-21T00:50:59.709Z,14.32
2023-03-21T00:54:05.866Z,14.23
2023-03-21T00:57:09.730Z,14.37
2023-03-21T01:00:18.278Z,14.28
2023-03-21T01:03:26.990Z,14.25
2023-03-21T01:06:31.395Z,14.34
2023-03-21T01:09:35.325Z,14.26
2023-03-21T01:12:39.235Z,14.32
2023-03-21T01:15:45.913Z,14.36
2023-03-21T01:18:51.368Z,14.36
2023-03-21T01:21:55.459Z,14.21
2023-03-21T01:25:12.113Z,14.33
2023-03-21T01:28:23.494Z,14.06
2023-03-21T01:31:29.650Z,14.06
2023-03-21T01:34:35.017Z,14.08
2023-03-21T01:37:39.188Z,14.03
2023-03-21T01:40:47.612Z,14.04
2023-03-21T01:44:01.953Z,13.97
2023-03-21T01:47:18.121Z,13.74
2023-03-21T01:50:32.608Z,13.82
2023-03-21T01:53:50.791Z,13.74
2023-03-21T01:56:58.272Z,13.72
2023-03-21T02:00:12.493Z,13.48
2023-03-21T02:03:38.806Z,13.54
2023-03-21T02:07:11.487Z,13.41
2023-03-21T02:10:21.032Z,13.44
2023-03-21T02:13:29.072Z,13.66
2023-03-21T02:16:48.026Z,13.80
2023-03-21T02:20:32.656Z,13.87
2023-03-21T02:24:26.767Z,13.66
2023-03-21T02:27:33.673Z,13.30
2023-03-21T02:30:52.335Z,13.21
2023-03-21T02:34:33.913Z,13.44
2023-03-21T02:37:46.769Z,13.13
2023-03-21T02:41:10.112Z,13.24
2023-03-21T02:44:22.806Z,13.20
2023-03-21T02:47:31.915Z,13.25
2023-03-21T02:50:39.912Z,13.47
2023-03-21T02:53:53.284Z,13.33
2023-03-21T02:57:03.946Z,13.29
2023-03-21T03:00:16.581Z,13.36
2023-03-21T03:03:33.483Z,13.13
2023-03-21T03:06:51.269Z,13.35
2023-03-21T03:10:13.914Z,13.07
2023-03-21T03:13:33.847Z,13.04
2023-03-21T03:16:45.908Z,13.33
2023-03-21T03:20:15.897Z,13.28
2023-03-21T03:23:29.690Z,13.27
2023-03-21T03:26:38.246Z,13.41
2023-03-21T03:29:46.481Z,13.46
2023-03-21T03:33:00.378Z,13.54
2023-03-21T03:36:07.109Z,13.62
2023-03-21T03:39:16.138Z,13.63
2023-03-21T03:42:33.225Z,13.67
2023-03-21T03:45:49.103Z,13.56
2023-03-21T03:48:58.522Z,13.50
2023-03-21T03:52:10.979Z,12.96
2023-03-21T03:55:23.081Z,13.20
2023-03-21T03:58:44.555Z,13.31
2023-03-21T04:01:51.936Z,13.22
2023-03-21T04:04:58.097Z,12.71
2023-03-21T04:08:02.560Z,12.66
2023-03-21T04:11:16.667Z,12.23
2023-03-21T04:14:35.668Z,12.18
2023-03-21T04:17:43.002Z,12.57
2023-03-21T04:20:48.940Z,12.15
2023-03-21T04:23:55.093Z,12.67
2023-03-21T04:31:00.434Z,13.02
2023-03-21T04:34:10.226Z,12.76
2023-03-21T04:37:17.151Z,12.83
2023-03-21T04:40:21.995Z,12.78
2023-03-21T04:43:26.226Z,12.79
2023-03-21T04:46:31.642Z,12.60
2023-03-21T04:49:35.897Z,12.72
2023-03-21T04:52:40.019Z,12.85
2023-03-21T04:55:44.088Z,12.92
2023-03-21T04:58:47.920Z,12.99
2023-03-21T05:01:57.168Z,13.07
2023-03-21T05:05:01.247Z,13.17
2023-03-21T05:08:05.768Z,13.09
2023-03-21T05:11:09.699Z,13.16
2023-03-21T05:14:17.122Z,13.11
2023-03-21T05:17:25.330Z,13.22
2023-03-21T05:20:29.265Z,12.88
2023-03-21T05:23:38.528Z,13.03
2023-03-21T05:26:43.628Z,13.27
2023-03-21T05:29:53.596Z,13.23
2023-03-21T05:32:59.254Z,13.09
2023-03-21T05:36:04.229Z,13.23
2023-03-21T05:39:09.655Z,13.11
2023-03-21T05:42:18.856Z,12.80
2023-03-21T05:45:23.693Z,12.76
2023-03-21T05:48:30.064Z,12.72
2023-03-21T05:51:54.409Z,12.62
2023-03-21T05:54:58.700Z,12.81
2023-03-21T05:58:04.400Z,13.15
2023-03-21T06:01:09.647Z,13.08
2023-03-21T06:04:18.617Z,13.36
2023-03-21T06:07:22.736Z,13.15
2023-03-21T06:10:27.581Z,13.34
2023-03-21T06:13:33.317Z,13.70
2023-03-21T06:16:37.818Z,13.74
2023-03-21T06:19:43.526Z,13.83
2023-03-21T06:22:54.039Z,14.00
2023-03-21T06:25:58.146Z,13.90
2023-03-21T06:29:03.994Z,13.96
2023-03-21T06:32:09.206Z,13.93
2023-03-21T06:35:15.230Z,13.97
2023-03-21T06:38:20.191Z,13.65
2023-03-21T06:41:24.910Z,13.58
2023-03-21T06:44:41.073Z,13.80
2023-03-21T06:47:50.057Z,13.87
2023-03-21T06:51:09.579Z,13.76
2023-03-21T06:54:19.295Z,13.96
2023-03-21T06:57:34.437Z,13.60
2023-03-21T07:00:38.887Z,13.87
2023-03-21T07:03:43.116Z,14.20
2023-03-21T07:06:49.048Z,14.14
2023-03-21T07:09:54.719Z,14.09
2023-03-21T07:13:00.720Z,14.14
2023-03-21T07:16:13.541Z,14.37
2023-03-21T07:19:17.607Z,14.90
2023-03-21T07:22:23.388Z,14.77
2023-03-21T07:25:27.620Z,14.86
2023-03-21T07:28:32.732Z,15.21
2023-03-21T07:31:37.042Z,15.49
2023-03-21T07:34:42.331Z,15.94
2023-03-21T07:37:48.953Z,15.98
2023-03-21T07:40:54.667Z,16.14
2023-03-21T07:43:59.669Z,16.14
2023-03-21T07:47:10.304Z,16.02
2023-03-21T07:50:15.047Z,15.20
2023-03-21T07:53:20.704Z,15.92
2023-03-21T07:56:24.858Z,16.45
2023-03-21T07:59:29.150Z,16.69
2023-03-21T08:02:33.254Z,17.02
2023-03-21T08:05:39.284Z,17.10
2023-03-21T08:08:45.009Z,16.91
2023-03-21T08:11:49.097Z,16.41
2023-03-21T08:14:53.235Z,16.71
2023-03-21T08:17:57.642Z,16.86
2023-03-21T08:21:02.024Z,17.11
2023-03-21T08:24:08.799Z,16.98
2023-03-21T08:27:12.961Z,16.75
2023-03-21T08:30:20.309Z,16.51
2023-03-21T08:33:24.493Z,16.80
2023-03-21T08:36:28.830Z,16.99
2023-03-21T08:39:34.385Z,17.24
2023-03-21T08:42:38.870Z,17.16
2023-03-21T08:45:43.034Z,17.26
2023-03-21T08:48:47.239Z,17.29
2023-03-21T08:51:51.849Z,16.95
2023-03-21T08:54:57.409Z,17.22
2023-03-21T08:58:02.342Z,16.94
2023-03-21T09:01:07.379Z,16.71
2023-03-21T09:04:12.213Z,16.33
2023-03-21T09:07:17.521Z,16.67
2023-03-21T09:10:24.958Z,16.87
2023-03-21T09:13:29.107Z,16.86
2023-03-21T09:16:33.984Z,16.85
2023-03-21T09:19:39.180Z,16.78
2023-03-21T09:22:43.432Z,17.43
2023-03-21T09:25:48.968Z,17.33
2023-03-21T09:28:53.489Z,17.32
2023-03-21T09:31:58.057Z,17.82
2023-03-21T09:35:02.567Z,18.04
2023-03-21T09:38:06.769Z,18.11
2023-03-21T09:41:34.267Z,18.34
2023-03-21T09:44:53.197Z,18.39
2023-03-21T09:47:58.615Z,18.65
2023-03-21T09:51:05.129Z,18.89
2023-03-21T09:54:15.283Z,18.93
2023-03-21T09:57:31.812Z,18.89
2023-03-21T10:00:40.593Z,19.22
2023-03-21T10:03:45.190Z,19.48
2023-03-21T10:06:57.400Z,19.32
2023-03-21T10:10:04.876Z,19.36
2023-03-21T10:13:17.679Z,18.97
2023-03-21T10:16:28.242Z,19.15
2023-03-21T10:19:32.406Z,19.14
2023-03-21T10:22:36.702Z,19.11
2023-03-21T10:25:47.166Z,19.34
2023-03-21T10:28:53.798Z,19.26
2023-03-21T10:31:58.898Z,19.21
2023-03-21T10:35:05.269Z,19.57
2023-03-21T10:38:17.215Z,19.41
2023-03-21T10:41:21.712Z,19.53
2023-03-21T10:44:32.213Z,19.41
2023-03-21T10:47:37.801Z,19.32
2023-03-21T10:50:42.700Z,19.55
2023-03-21T10:53:52.247Z,19.48
2023-03-21T10:56:59.705Z,19.31
2023-03-21T11:00:15.324Z,19.81
2023-03-21T11:03:24.635Z,19.64
2023-03-21T11:06:34.219Z,19.72
2023-03-21T11:09:52.488Z,19.87
2023-03-21T11:12:59.794Z,19.73
2023-03-21T11:16:10.246Z,19.71
2023-03-21T11:19:17.361Z,19.86
2023-03-21T11:22:24.594Z,20.06
2023-03-21T11:25:37.672Z,20.17
2023-03-21T11:28:45.272Z,19.37
2023-03-21T11:31:51.245Z,19.45
2023-03-21T11:35:00.472Z,19.53
2023-03-21T11:38:05.543Z,19.51
2023-03-21T11:41:09.955Z,19.44
2023-03-21T11:44:31.714Z,19.49
2023-03-21T11:47:37.298Z,19.28
2023-03-21T11:50:44.920Z,19.69
2023-03-21T11:53:53.122Z,19.49
2023-03-21T11:57:05.588Z,19.59
2023-03-21T12:00:18.670Z,19.50
2023-03-21T12:03:48.352Z,19.45
2023-03-21T12:06:58.038Z,19.52
2023-03-21T12:10:18.799Z,19.21
2023-03-21T12:13:34.907Z,19.73
2023-03-21T12:16:49.997Z,20.13
2023-03-21T12:20:11.493Z,19.87
2023-03-21T12:23:33.828Z,19.96
2023-03-21T12:26:43.817Z,19.77
2023-03-21T12:30:09.703Z,19.59
2023-03-21T12:33:34.720Z,19.64
2023-03-21T12:36:59.298Z,19.35
2023-03-21T12:40:13.693Z,19.22
2023-03-21T12:43:31.007Z,19.15
2023-03-21T12:46:41.154Z,18.80
2023-03-21T12:49:55.086Z,18.59
2023-03-21T12:53:09.356Z,18.31
2023-03-21T12:56:18.624Z,18.77
2023-03-21T12:59:32.913Z,18.81
2023-03-21T13:02:42.152Z,18.89
2023-03-21T13:05:50.058Z,18.84
2023-03-21T13:09:01.652Z,18.92
2023-03-21T13:12:17.873Z,18.99
2023-03-21T13:15:40.734Z,18.84
2023-03-21T13:18:56.692Z,18.74
2023-03-21T13:22:08.902Z,18.64
2023-03-21T13:25:20.950Z,18.70
2023-03-21T13:28:29.280Z,18.84
2023-03-21T13:31:45.364Z,18.74
2023-03-21T13:34:59.655Z,18.83
2023-03-21T13:38:06.756Z,18.93
2023-03-21T13:41:17.209Z,18.67
2023-03-21T13:44:26.140Z,18.42
2023-03-21T13:47:41.688Z,18.69
2023-03-21T13:51:01.662Z,18.57
2023-03-21T13:54:17.990Z,18.66
2023-03-21T13:57:39.719Z,18.54
2023-03-21T14:00:43.877Z,18.47
2023-03-21T14:03:48.495Z,18.60
2023-03-21T14:06:57.657Z,18.49
2023-03-21T14:10:06.155Z,18.48
2023-03-21T14:13:17.265Z,18.37
2023-03-21T14:16:22.969Z,18.38
2023-03-21T14:19:32.627Z,18.32
2023-03-21T14:22:36.712Z,18.46
2023-03-21T14:25:47.554Z,18.48
2023-03-21T14:28:54.413Z,18.43
2023-03-21T14:32:00.519Z,18.45
2023-03-21T14:35:05.402Z,18.38
2023-03-21T14:38:11.103Z,18.50
2023-03-21T14:41:24.185Z,18.37
2023-03-21T14:44:47.379Z,18.29
2023-03-21T14:48:00.367Z,18.35
2023-03-21T14:51:06.614Z,18.35
2023-03-21T14:54:17.919Z,18.24
2023-03-21T14:57:25.325Z,18.11
2023-03-21T15:00:32.996Z,18.00
2023-03-21T15:03:37.978Z,18.02
2023-03-21T15:06:55.745Z,18.06
2023-03-21T15:10:04.020Z,18.08
2023-03-21T15:13:17.766Z,18.05
2023-03-21T15:16:24.741Z,18.23
2023-03-21T15:19:35.121Z,18.33
2023-03-21T15:22:42.490Z,18.37
2023-03-21T15:25:47.389Z,18.32
2023-03-21T15:28:56.735Z,18.39
2023-03-21T15:32:06.811Z,18.22
2023-03-21T15:35:18.175Z,18.28
2023-03-21T15:38:26.052Z,18.33
2023-03-21T15:41:32.544Z,18.28
2023-03-21T15:44:37.524Z,18.03
2023-03-21T15:47:45.220Z,18.24
2023-03-21T15:50:53.908Z,18.21
2023-03-21T15:53:58.141Z,18.14
2023-03-21T15:57:04.886Z,17.97
2023-03-21T16:00:22.999Z,18.00
2023-03-21T16:03:32.646Z,17.88
2023-03-21T16:06:38.440Z,17.71
2023-03-21T16:09:45.085Z,17.76
2023-03-21T16:12:49.116Z,17.64
2023-03-21T16:15:53.566Z,17.70
2023-03-21T16:19:00.767Z,17.78
2023-03-21T16:22:10.586Z,17.64
2023-03-21T16:25:14.751Z,17.61
2023-03-21T16:28:19.423Z,17.64
2023-03-21T16:31:25.909Z,17.62
2023-03-21T16:34:32.572Z,17.61
2023-03-21T16:37:36.745Z,17.64
2023-03-21T16:40:44.093Z,17.61
2023-03-21T16:43:48.406Z,17.68
2023-03-21T16:46:52.557Z,17.62
2023-03-21T16:49:58.293Z,17.43
2023-03-21T16:53:03.404Z,17.43
2023-03-21T16:56:10.378Z,17.41
2023-03-21T16:59:16.188Z,17.55
2023-03-21T17:02:20.256Z,17.51
2023-03-21T17:05:27.103Z,17.55
2023-03-21T17:08:31.798Z,17.55
2023-03-21T17:11:37.808Z,17.63
2023-03-21T17:14:42.272Z,17.55
2023-03-21T17:17:46.822Z,17.54
2023-03-21T17:20:52.459Z,17.50
2023-03-21T17:23:57.117Z,17.52
2023-03-21T17:27:02.782Z,17.47
2023-03-21T17:30:19.085Z,17.37
2023-03-21T17:33:23.176Z,17.43
2023-03-21T17:36:32.081Z,17.37
2023-03-21T17:39:36.138Z,17.28
2023-03-21T17:42:41.289Z,17.15
2023-03-21T17:45:45.388Z,17.21
2023-03-21T17:48:50.124Z,17.25
2023-03-21T17:51:56.074Z,17.12
2023-03-21T17:55:00.237Z,17.08
2023-03-21T17:58:05.827Z,17.07
2023-03-21T18:01:09.921Z,16.95
2023-03-21T18:04:14.014Z,16.94
2023-03-21T18:07:29.696Z,16.93
2023-03-21T18:10:44.311Z,16.83
2023-03-21T18:13:48.963Z,16.85
2023-03-21T18:16:54.506Z,16.82
2023-03-21T18:19:59.914Z,16.85
2023-03-21T18:23:06.430Z,16.94
2023-03-21T18:26:11.869Z,16.97
2023-03-21T18:32:44.235Z,16.87
2023-03-21T18:35:48.547Z,16.93
2023-03-21T18:38:55.783Z,16.83
2023-03-21T18:42:02.630Z,16.78
2023-03-21T18:45:10.994Z,16.73
2023-03-21T18:48:15.195Z,16.14
2023-03-21T18:51:19.808Z,16.04
2023-03-21T18:54:25.439Z,16.29
2023-03-21T18:57:37.062Z,15.95
2023-03-21T19:00:42.999Z,16.15
2023-03-21T19:04:14.575Z,16.31
2023-03-21T19:07:11.620Z,16.13
2023-03-21T19:10:19.860Z,16.12
2023-03-21T19:13:24.405Z,16.08
2023-03-21T19:16:32.723Z,16.12
2023-03-21T19:19:43.928Z,15.99
2023-03-21T19:22:48.285Z,15.94
2023-03-21T19:25:53.896Z,15.77
2023-03-21T19:28:57.896Z,15.72
2023-03-21T19:32:02.137Z,15.80
2023-03-21T19:35:07.769Z,15.71
2023-03-21T19:38:13.035Z,15.64
2023-03-21T19:41:18.861Z,15.60
2023-03-21T19:44:22.902Z,15.66
2023-03-21T19:47:27.484Z,15.57
2023-03-21T19:53:55.931Z,15.65
2023-03-21T19:57:01.545Z,15.64
2023-03-21T20:00:10.906Z,15.65
2023-03-21T20:03:15.447Z,15.56
2023-03-21T20:06:19.597Z,15.60
2023-03-21T20:09:49.538Z,15.41
2023-03-21T20:12:50.024Z,15.56
2023-03-21T20:15:55.525Z,15.69
2023-03-21T20:19:00.750Z,15.76
2023-03-21T20:22:21.820Z,15.56
2023-03-21T20:25:33.637Z,15.78
2023-03-21T20:28:39.532Z,15.74
2023-03-21T20:31:43.572Z,15.50
2023-03-21T20:34:48.460Z,15.53
2023-03-21T20:37:53.328Z,15.51
2023-03-21T20:40:57.479Z,15.54
2023-03-21T20:47:28.054Z,15.64
2023-03-21T20:50:33.204Z,15.69
2023-03-21T20:53:37.842Z,15.58
2023-03-21T20:56:42.026Z,15.54
2023-03-21T20:59:48.000Z,15.56
2023-03-21T21:02:52.526Z,15.63
2023-03-21T21:05:56.669Z,15.34
2023-03-21T21:09:00.802Z,15.35
2023-03-21T21:12:07.645Z,15.45
2023-03-21T21:15:17.045Z,15.37
2023-03-21T21:18:21.457Z,15.55
2023-03-21T21:21:25.762Z,15.49
2023-03-21T21:24:31.630Z,15.36
2023-03-21T21:27:35.738Z,15.40
2023-03-21T21:30:43.293Z,15.50
2023-03-21T21:33:50.364Z,15.13
2023-03-21T21:36:55.564Z,15.38
2023-03-21T21:39:59.607Z,15.36
2023-03-21T21:43:04.394Z,15.44
2023-03-21T21:46:10.274Z,15.45
2023-03-21T21:49:14.510Z,15.54
2023-03-21T21:52:24.448Z,15.44
2023-03-21T21:55:28.487Z,15.55
2023-03-21T21:58:34.117Z,15.36
2023-03-21T22:01:42.691Z,15.28
2023-03-21T22:04:46.981Z,15.26
2023-03-21T22:07:53.534Z,15.39
2023-03-21T22:10:58.204Z,15.44
2023-03-21T22:14:02.470Z,15.21
2023-03-21T22:17:08.027Z,15.27
2023-03-21T22:20:15.899Z,15.33
2023-03-21T22:23:19.963Z,14.99
2023-03-21T22:26:24.457Z,15.22
2023-03-21T22:29:29.582Z,15.04
2023-03-21T22:32:35.950Z,15.05
2023-03-21T22:35:39.977Z,14.89
2023-03-21T22:38:44.326Z,14.70
2023-03-21T22:41:48.395Z,14.81
2023-03-21T22:44:52.450Z,14.59
2023-03-21T22:48:00.314Z,14.51
2023-03-21T22:51:04.726Z,14.55
2023-03-21T22:54:08.879Z,14.58
2023-03-21T22:57:13.994Z,14.60
2023-03-21T23:00:20.321Z,14.74
2023-03-21T23:03:25.892Z,14.82
2023-03-21T23:06:29.810Z,14.65
2023-03-21T23:09:34.164Z,14.32
2023-03-21T23:12:38.818Z,13.86
2023-03-21T23:15:43.378Z,14.01
2023-03-21T23:18:49.120Z,14.04
2023-03-21T23:21:53.288Z,13.74
2023-03-21T23:24:57.350Z,13.60
2023-03-21T23:28:02.412Z,13.69
2023-03-21T23:31:10.975Z,13.60
2023-03-21T23:34:16.740Z,13.79
2023-03-21T23:37:21.615Z,13.74
2023-03-21T23:40:25.561Z,13.89
2023-03-21T23:43:29.954Z,13.76
2023-03-21T23:46:34.164Z,13.69
2023-03-21T23:49:41.125Z,13.85
2023-03-21T23:52:45.279Z,13.81
2023-03-21T23:55:52.197Z,13.14
2023-03-21T23:58:56.235Z,12.89
